Time;durP1;ratioP1;P1;durP2;ratioP2;P2;SDS_P1;SDS_P2;PMS_P1;PMS_P2;Temp;Humidity;BMP_temperature;BMP_pressure;BME280_temperature;BME280_humidity;BME280_pressure;Samples;Min_cycle;Max_cycle;Signal;HPM_P1;HPM_P2
2022/10/08 00:01:10;;;;;;;28.17;10.88;;;7.40;99.90;;;;;;5037351;28;20037;-76
2022/10/08 00:03:39;;;;;;;25.58;11.52;;;7.40;99.90;;;;;;5037734;28;20377;-76
2022/10/08 00:06:07;;;;;;;27.35;11.75;;;7.40;99.90;;;;;;5035525;28;20021;-75
2022/10/08 00:08:37;;;;;;;23.75;11.25;;;7.40;99.90;;;;;;5044637;28;20318;-75
2022/10/08 00:11:08;;;;;;;26.42;11.00;;;7.30;99.90;;;;;;5044413;28;20029;-75
2022/10/08 00:13:40;;;;;;;28.33;10.00;;;7.30;99.90;;;;;;5044136;28;20099;-75
2022/10/08 00:16:11;;;;;;;29.50;10.63;;;7.30;99.90;;;;;;5037618;28;20036;-76
2022/10/08 00:18:43;;;;;;;30.17;12.23;;;7.30;99.90;;;;;;5044357;28;20028;-76
2022/10/08 00:21:15;;;;;;;24.77;11.15;;;7.30;99.90;;;;;;5036567;28;20025;-76
2022/10/08 00:23:45;;;;;;;23.17;10.98;;;7.30;99.90;;;;;;5042566;28;20033;-76
2022/10/08 00:26:11;;;;;;;23.58;11.60;;;7.30;99.90;;;;;;5046488;28;20023;-76
2022/10/08 00:28:41;;;;;;;22.90;11.23;;;7.40;99.90;;;;;;5045847;28;20679;-75
2022/10/08 00:31:10;;;;;;;34.78;11.55;;;7.40;99.90;;;;;;5043143;28;20072;-75
2022/10/08 00:33:36;;;;;;;22.00;11.20;;;7.40;99.90;;;;;;5041063;28;20029;-76
2022/10/08 00:36:07;;;;;;;27.00;11.80;;;7.40;99.90;;;;;;5044920;28;20029;-75
2022/10/08 00:38:32;;;;;;;20.55;10.63;;;7.40;99.90;;;;;;5045575;28;20467;-75
2022/10/08 00:40:59;;;;;;;19.50;10.68;;;7.30;99.90;;;;;;5059481;28;20062;-75
2022/10/08 00:43:49;;;;;;;20.27;10.30;;;7.30;99.90;;;;;;5046789;28;20064;-76
2022/10/08 00:46:20;;;;;;;22.63;10.55;;;7.30;99.90;;;;;;5043541;28;20104;-76
2022/10/08 00:48:46;;;;;;;;;;;7.30;99.90;;;;;;5047139;28;20029;-76
2022/10/08 00:51:11;;;;;;;24.67;10.13;;;7.30;99.90;;;;;;5046557;28;20046;-75
2022/10/08 00:53:37;;;;;;;22.42;10.63;;;7.30;99.90;;;;;;5044731;28;20035;-76
2022/10/08 00:56:03;;;;;;;25.63;11.35;;;7.40;99.90;;;;;;5040956;28;20033;-76
2022/10/08 00:58:30;;;;;;;24.73;11.75;;;7.50;99.90;;;;;;5048177;28;20029;-76
2022/10/08 01:00:57;;;;;;;23.10;10.00;;;7.50;99.90;;;;;;5043075;28;20041;-76
2022/10/08 01:03:22;;;;;;;26.13;11.43;;;7.50;99.90;;;;;;5049404;28;20025;-76
2022/10/08 01:06:22;;;;;;;25.20;9.98;;;7.50;99.90;;;;;;5045623;28;20433;-75
2022/10/08 01:09:13;;;;;;;20.08;10.20;;;7.40;99.90;;;;;;5041636;28;20074;-75
2022/10/08 01:11:52;;;;;;;27.05;10.10;;;7.50;99.90;;;;;;5049984;28;20090;-76
2022/10/08 01:14:20;;;;;;;19.95;9.38;;;7.40;99.90;;;;;;5046482;28;20097;-76
2022/10/08 01:17:10;;;;;;;27.50;10.32;;;7.40;99.90;;;;;;5045290;28;20082;-75
2022/10/08 01:20:06;;;;;;;25.10;10.63;;;7.40;99.90;;;;;;5051018;28;20051;-75
2022/10/08 01:23:11;;;;;;;20.73;9.70;;;7.50;99.90;;;;;;5047028;28;20029;-75
2022/10/08 01:26:09;;;;;;;21.45;9.35;;;7.50;99.90;;;;;;5041246;28;20036;-75
2022/10/08 01:28:41;;;;;;;22.23;9.38;;;7.60;99.90;;;;;;5047023;28;20189;-76
2022/10/08 01:31:09;;;;;;;;;;;7.70;99.90;;;;;;5047828;28;20175;-76
2022/10/08 01:33:57;;;;;;;18.98;8.25;;;7.60;99.90;;;;;;5048099;28;19999;-76
2022/10/08 01:36:24;;;;;;;17.25;8.82;;;7.60;99.90;;;;;;5046764;28;20028;-76
2022/10/08 01:38:54;;;;;;;18.88;8.40;;;7.60;99.90;;;;;;5044068;28;20029;-76
2022/10/08 01:41:24;;;;;;;15.57;7.80;;;7.70;99.90;;;;;;5051258;28;20167;-75
2022/10/08 01:43:59;;;;;;;14.93;8.20;;;7.80;99.90;;;;;;5045002;28;20037;-75
2022/10/08 01:46:28;;;;;;;16.42;7.57;;;7.80;99.90;;;;;;5042301;28;20032;-76
2022/10/08 01:49:00;;;;;;;13.90;7.38;;;7.80;99.90;;;;;;5048629;28;20029;-75
2022/10/08 01:51:31;;;;;;;16.77;7.78;;;7.80;99.90;;;;;;5043597;28;20064;-76
2022/10/08 01:53:57;;;;;;;14.30;7.63;;;7.70;99.90;;;;;;5046997;28;20163;-76
2022/10/08 01:56:27;;;;;;;13.88;7.07;;;7.80;99.90;;;;;;5047145;28;20025;-76
2022/10/08 01:58:57;;;;;;;12.77;6.45;;;7.80;99.90;;;;;;5048440;28;20082;-75
2022/10/08 02:01:37;;;;;;;15.48;6.97;;;7.90;99.90;;;;;;5045773;28;20416;-76
2022/10/08 02:06:54;;;;;;;13.98;6.78;;;7.90;99.90;;;;;;5044912;28;20106;-76
2022/10/08 02:09:21;;;;;;;14.15;6.05;;;7.80;99.90;;;;;;5048483;28;20445;-76
2022/10/08 02:11:49;;;;;;;12.07;5.82;;;7.80;99.90;;;;;;5045351;28;20103;-76
2022/10/08 02:14:15;;;;;;;14.43;6.82;;;7.70;99.90;;;;;;5040004;28;20506;-76
2022/10/08 02:16:49;;;;;;;9.80;4.43;;;7.80;99.90;;;;;;5044011;28;20060;-76
2022/10/08 02:19:32;;;;;;;12.63;5.50;;;8.00;99.90;;;;;;5046897;28;20060;-76
2022/10/08 02:22:00;;;;;;;12.35;5.78;;;8.00;99.90;;;;;;5041446;28;20029;-76
2022/10/08 02:24:56;;;;;;;9.90;4.80;;;8.00;99.90;;;;;;5045589;28;20131;-76
2022/10/08 02:27:33;;;;;;;9.32;4.85;;;8.10;99.90;;;;;;5041983;28;20016;-76
2022/10/08 02:30:07;;;;;;;11.40;5.03;;;8.10;99.90;;;;;;5041894;28;20075;-74
2022/10/08 02:32:46;;;;;;;10.48;5.20;;;8.10;99.90;;;;;;5042501;28;20488;-74
2022/10/08 02:35:38;;;;;;;13.50;5.38;;;8.10;99.90;;;;;;5046820;28;20037;-77
2022/10/08 02:38:13;;;;;;;9.73;4.90;;;8.20;99.90;;;;;;5040032;28;20143;-74
2022/10/08 02:40:43;;;;;;;9.30;4.78;;;8.30;99.90;;;;;;5045565;28;20131;-74
2022/10/08 02:43:23;;;;;;;9.48;4.20;;;8.20;99.90;;;;;;5045638;28;20025;-74
2022/10/08 02:45:58;;;;;;;7.55;4.53;;;8.20;99.90;;;;;;5040444;28;20033;-74
2022/10/08 02:48:30;;;;;;;7.13;4.40;;;8.10;99.90;;;;;;5045112;28;20037;-74
2022/10/08 02:51:00;;;;;;;6.90;4.47;;;8.10;99.90;;;;;;5048065;28;20086;-74
2022/10/08 02:53:25;;;;;;;9.70;4.60;;;8.20;99.90;;;;;;5046904;28;20032;-74
2022/10/08 02:56:12;;;;;;;7.40;4.28;;;8.20;99.90;;;;;;5044822;28;20395;-74
2022/10/08 02:58:38;;;;;;;10.32;3.75;;;8.10;99.90;;;;;;5044719;28;20531;-75
2022/10/08 03:01:14;;;;;;;7.50;4.80;;;8.10;99.90;;;;;;5046018;28;20124;-74
2022/10/08 03:03:45;;;;;;;9.02;3.90;;;8.00;99.90;;;;;;5047575;28;20029;-74
2022/10/08 03:06:11;;;;;;;;;;;7.90;99.90;;;;;;5045870;28;20112;-77
2022/10/08 03:08:42;;;;;;;5.93;3.30;;;7.90;99.90;;;;;;5046131;28;20003;-75
2022/10/08 03:11:08;;;;;;;10.50;3.75;;;7.90;99.90;;;;;;5042761;28;20028;-75
2022/10/08 03:13:40;;;;;;;9.38;3.40;;;7.90;99.90;;;;;;5041619;28;20083;-76
2022/10/08 03:16:10;;;;;;;6.30;3.47;;;7.90;99.90;;;;;;5045608;28;20039;-76
2022/10/08 03:18:37;;;;;;;7.43;3.55;;;7.90;99.90;;;;;;5041417;28;20044;-75
2022/10/08 03:21:03;;;;;;;6.88;3.55;;;7.80;99.90;;;;;;5042105;28;20683;-76
2022/10/08 03:23:29;;;;;;;6.28;3.75;;;7.90;99.90;;;;;;5044330;28;20476;-76
2022/10/08 03:25:54;;;;;;;7.50;2.88;;;7.90;99.90;;;;;;5045900;28;20028;-76
2022/10/08 03:28:20;;;;;;;7.18;3.63;;;8.00;99.90;;;;;;5042407;28;20496;-75
2022/10/08 03:30:46;;;;;;;6.00;3.53;;;8.00;99.90;;;;;;5037660;28;20114;-76
2022/10/08 03:33:11;;;;;;;4.25;2.90;;;7.90;99.90;;;;;;5047563;28;20037;-75
2022/10/08 03:35:44;;;;;;;5.57;3.63;;;7.90;99.90;;;;;;5044003;28;20091;-75
2022/10/08 03:38:09;;;;;;;7.00;3.50;;;7.90;99.90;;;;;;5033022;28;20030;-75
2022/10/08 03:40:34;;;;;;;5.68;3.72;;;8.00;99.90;;;;;;5045634;28;20017;-76
2022/10/08 03:43:00;;;;;;;4.88;3.38;;;8.10;99.90;;;;;;5045736;28;20072;-76
2022/10/08 03:45:25;;;;;;;5.95;2.90;;;8.10;99.90;;;;;;5043440;28;20483;-76
2022/10/08 03:47:51;;;;;;;6.15;3.75;;;8.10;99.90;;;;;;5043464;28;20021;-76
2022/10/08 03:50:17;;;;;;;6.00;3.42;;;8.10;99.90;;;;;;5048463;28;20506;-75
2022/10/08 03:52:42;;;;;;;9.43;3.80;;;8.20;99.90;;;;;;5045404;28;20033;-75
2022/10/08 03:55:08;;;;;;;9.95;2.97;;;8.30;99.90;;;;;;5046212;28;20068;-75
2022/10/08 03:57:33;;;;;;;4.55;3.03;;;8.30;99.90;;;;;;5035533;28;20025;-76
2022/10/08 03:59:59;;;;;;;5.28;3.28;;;8.40;99.90;;;;;;5045247;28;20025;-76
2022/10/08 04:02:24;;;;;;;4.70;2.92;;;8.50;99.90;;;;;;5044226;28;20076;-76
2022/10/08 04:04:50;;;;;;;6.35;3.25;;;8.50;99.90;;;;;;5047360;28;20546;-76
2022/10/08 04:07:15;;;;;;;7.80;3.22;;;8.50;99.90;;;;;;5042102;28;20029;-76
2022/10/08 04:09:43;;;;;;;4.82;3.03;;;8.60;99.90;;;;;;5042160;28;20443;-77
2022/10/08 04:12:09;;;;;;;7.03;3.95;;;8.60;99.90;;;;;;5043062;28;20024;-76
2022/10/08 04:14:34;;;;;;;3.75;2.78;;;8.70;99.90;;;;;;5042217;28;20577;-76
2022/10/08 04:17:00;;;;;;;4.63;2.78;;;8.70;99.90;;;;;;5041280;28;20025;-76
2022/10/08 04:19:25;;;;;;;7.28;3.85;;;8.70;99.90;;;;;;5043901;28;20468;-76
2022/10/08 04:21:51;;;;;;;5.72;3.33;;;8.70;99.90;;;;;;5045226;28;20029;-76
2022/10/08 04:24:16;;;;;;;6.07;3.22;;;8.70;99.90;;;;;;5045547;28;20522;-76
2022/10/08 04:26:42;;;;;;;5.95;3.45;;;8.60;99.90;;;;;;5039677;28;20090;-76
2022/10/08 04:29:07;;;;;;;5.28;3.30;;;8.70;99.90;;;;;;5037561;28;20025;-76
2022/10/08 04:31:32;;;;;;;6.28;3.58;;;8.70;99.90;;;;;;5045457;28;20060;-76
2022/10/08 04:33:58;;;;;;;5.32;2.67;;;8.60;99.90;;;;;;5048994;28;20595;-75
2022/10/08 04:36:24;;;;;;;7.40;3.28;;;8.60;99.90;;;;;;5045951;28;20024;-76
2022/10/08 04:38:50;;;;;;;4.38;3.00;;;8.50;99.90;;;;;;5038524;28;20028;-75
2022/10/08 04:41:22;;;;;;;4.13;2.63;;;8.40;99.90;;;;;;5047756;28;20028;-75
2022/10/08 04:43:48;;;;;;;4.40;2.90;;;8.40;99.90;;;;;;5046297;28;20037;-76
2022/10/08 04:46:16;;;;;;;6.00;2.88;;;8.30;99.90;;;;;;5048836;28;20051;-76
2022/10/08 04:48:46;;;;;;;4.85;2.75;;;8.20;99.90;;;;;;5047127;28;20029;-76
2022/10/08 04:51:12;;;;;;;8.70;2.97;;;8.10;99.90;;;;;;5046189;28;20083;-76
2022/10/08 04:53:38;;;;;;;5.80;3.03;;;8.00;99.90;;;;;;5044325;28;20036;-75
2022/10/08 04:56:12;;;;;;;3.80;2.47;;;7.90;99.90;;;;;;5046950;28;20491;-75
2022/10/08 04:58:38;;;;;;;8.38;3.47;;;7.80;99.90;;;;;;5046693;28;20049;-75
2022/10/08 05:01:06;;;;;;;7.00;2.85;;;7.60;99.90;;;;;;5043327;28;20060;-76
2022/10/08 05:03:38;;;;;;;4.03;2.40;;;7.50;99.90;;;;;;5049846;28;20024;-75
2022/10/08 05:06:05;;;;;;;3.75;2.83;;;7.40;99.90;;;;;;5045978;28;20021;-76
2022/10/08 05:08:31;;;;;;;8.30;2.80;;;7.40;99.90;;;;;;5047747;28;20047;-75
2022/10/08 05:10:56;;;;;;;5.28;2.58;;;7.50;99.90;;;;;;5049697;28;20479;-76
2022/10/08 05:13:22;;;;;;;3.83;2.72;;;7.50;99.90;;;;;;5042494;28;20030;-76
2022/10/08 05:15:47;;;;;;;4.65;2.50;;;7.50;99.90;;;;;;5044792;28;20033;-75
2022/10/08 05:18:13;;;;;;;4.90;2.67;;;7.40;99.90;;;;;;5049336;28;20056;-75
2022/10/08 05:20:39;;;;;;;4.35;2.67;;;7.40;99.90;;;;;;5039887;28;20507;-76
2022/10/08 05:23:05;;;;;;;3.83;2.80;;;7.30;99.90;;;;;;5043963;28;20048;-75
2022/10/08 05:25:32;;;;;;;3.63;2.53;;;7.30;99.90;;;;;;5045330;28;20043;-75
2022/10/08 05:27:57;;;;;;;4.13;2.50;;;7.30;99.90;;;;;;5038909;28;20022;-76
2022/10/08 05:30:23;;;;;;;3.25;2.30;;;7.30;99.90;;;;;;5036151;28;20090;-76
2022/10/08 05:32:48;;;;;;;4.55;2.63;;;7.30;99.90;;;;;;5048056;28;20117;-74
2022/10/08 05:35:14;;;;;;;6.65;2.70;;;7.30;99.90;;;;;;5042301;28;20557;-78
2022/10/08 05:37:39;;;;;;;5.25;2.53;;;7.40;99.90;;;;;;5049006;28;20052;-77
2022/10/08 05:40:05;;;;;;;3.50;2.45;;;7.40;99.90;;;;;;5047927;28;20531;-75
2022/10/08 05:42:31;;;;;;;9.73;2.75;;;7.40;99.90;;;;;;5030344;28;20116;-75
2022/10/08 05:44:56;;;;;;;7.65;2.50;;;7.50;99.90;;;;;;5037149;28;20071;-79
2022/10/08 05:47:22;;;;;;;5.47;2.78;;;7.50;99.90;;;;;;5046474;28;20029;-78
2022/10/08 05:49:47;;;;;;;4.32;2.55;;;7.50;99.90;;;;;;5047926;28;20158;-77
2022/10/08 05:52:13;;;;;;;5.50;2.90;;;7.50;99.90;;;;;;5045675;28;20073;-80
2022/10/08 05:54:45;;;;;;;4.75;3.00;;;7.50;99.90;;;;;;5045700;28;20029;-76
2022/10/08 05:57:10;;;;;;;3.95;2.40;;;7.50;99.90;;;;;;5036248;28;20033;-76
2022/10/08 05:59:35;;;;;;;3.28;2.05;;;7.50;99.90;;;;;;5036830;28;20121;-77
2022/10/08 06:02:01;;;;;;;3.60;2.35;;;7.50;99.90;;;;;;5044771;28;20029;-76
2022/10/08 06:04:26;;;;;;;4.57;2.53;;;7.50;99.90;;;;;;5036093;28;20028;-77
2022/10/08 06:06:52;;;;;;;3.33;2.38;;;7.50;99.90;;;;;;5043042;28;20028;-77
2022/10/08 06:09:19;;;;;;;4.93;2.70;;;7.40;99.90;;;;;;5043375;28;20024;-79
2022/10/08 06:11:46;;;;;;;6.30;2.60;;;7.50;99.90;;;;;;5040200;28;20063;-79
2022/10/08 06:14:13;;;;;;;4.13;2.53;;;7.50;99.90;;;;;;5031868;28;20120;-79
2022/10/08 06:16:39;;;;;;;4.68;2.72;;;7.50;99.90;;;;;;5036129;28;20866;-79
2022/10/08 06:19:06;;;;;;;5.32;2.95;;;7.50;99.90;;;;;;5035159;28;20025;-80
2022/10/08 06:21:32;;;;;;;8.50;2.78;;;7.50;99.90;;;;;;5036248;28;20033;-79
2022/10/08 06:24:00;;;;;;;5.32;2.83;;;7.40;99.90;;;;;;5034362;28;20400;-80
2022/10/08 06:26:29;;;;;;;3.22;2.35;;;7.50;99.90;;;;;;5037480;28;20028;-79
2022/10/08 06:28:56;;;;;;;4.88;2.40;;;7.50;99.90;;;;;;5034571;28;20408;-80
2022/10/08 06:31:21;;;;;;;3.72;2.58;;;7.60;99.90;;;;;;5032909;28;20508;-79
2022/10/08 06:33:47;;;;;;;6.35;2.95;;;7.70;99.90;;;;;;5033953;28;20067;-80
2022/10/08 06:36:14;;;;;;;3.83;2.45;;;7.80;99.90;;;;;;5036470;28;20029;-79
2022/10/08 06:38:39;;;;;;;5.45;2.63;;;7.80;99.90;;;;;;5036562;28;20569;-79
2022/10/08 06:41:05;;;;;;;5.13;2.75;;;8.00;99.90;;;;;;5035014;28;20026;-79
2022/10/08 06:43:30;;;;;;;4.90;2.72;;;8.50;99.90;;;;;;5036487;28;20090;-79
2022/10/08 06:45:58;;;;;;;4.07;2.97;;;8.60;99.90;;;;;;5036584;28;20017;-79
2022/10/08 06:48:24;;;;;;;7.80;2.65;;;8.90;99.90;;;;;;5035782;28;20485;-80
2022/10/08 06:51:00;;;;;;;9.00;3.03;;;9.30;99.90;;;;;;5034174;28;20112;-79
2022/10/08 06:53:38;;;;;;;5.63;3.17;;;9.50;99.90;;;;;;5034294;28;20042;-80
2022/10/08 06:56:07;;;;;;;4.35;2.60;;;9.70;99.90;;;;;;5029720;28;20071;-79
2022/10/08 06:58:36;;;;;;;5.95;2.55;;;10.00;99.90;;;;;;5034855;28;20033;-79
2022/10/08 07:01:08;;;;;;;7.55;2.95;;;10.20;99.90;;;;;;5036023;28;20132;-79
2022/10/08 07:03:34;;;;;;;;;;;10.40;99.90;;;;;;5035593;28;20075;-79
2022/10/08 07:06:05;;;;;;;5.07;2.50;;;10.50;99.90;;;;;;5036217;28;19908;-79
2022/10/08 07:08:31;;;;;;;3.30;2.30;;;10.60;99.90;;;;;;5035576;28;20029;-80
2022/10/08 07:11:08;;;;;;;4.70;2.38;;;10.70;99.90;;;;;;5036419;28;20036;-79
2022/10/08 07:13:34;;;;;;;4.53;2.47;;;10.80;99.90;;;;;;5036352;28;20117;-79
2022/10/08 07:16:05;;;;;;;4.30;2.45;;;10.90;99.90;;;;;;5035081;28;20045;-79
2022/10/08 07:18:31;;;;;;;5.32;2.25;;;10.90;99.90;;;;;;5034669;28;20029;-79
2022/10/08 07:20:59;;;;;;;5.55;2.20;;;11.10;99.90;;;;;;5037928;28;20032;-79
2022/10/08 07:23:25;;;;;;;8.93;2.60;;;11.20;99.90;;;;;;5032740;28;20087;-79
2022/10/08 07:26:18;;;;;;;7.15;2.30;;;11.30;99.90;;;;;;5036655;28;20683;-80
2022/10/08 07:28:49;;;;;;;2.97;2.00;;;11.50;99.90;;;;;;5028653;28;20048;-79
2022/10/08 07:31:28;;;;;;;4.55;2.03;;;11.50;99.90;;;;;;5032810;28;20057;-79
2022/10/08 07:33:55;;;;;;;3.03;1.85;;;11.70;99.90;;;;;;5035277;28;20051;-79
2022/10/08 07:36:23;;;;;;;4.53;2.20;;;11.80;99.90;;;;;;5034320;28;20036;-80
2022/10/08 07:39:00;;;;;;;5.85;2.15;;;12.00;99.90;;;;;;5036042;28;20029;-79
2022/10/08 07:41:26;;;;;;;4.50;2.03;;;12.10;99.90;;;;;;5036009;28;20037;-79
2022/10/08 07:44:01;;;;;;;4.25;1.60;;;12.20;99.90;;;;;;5038081;28;20055;-81
2022/10/08 07:46:40;;;;;;;7.65;2.17;;;12.30;99.90;;;;;;5035949;28;20106;-81
2022/10/08 07:49:05;;;;;;;4.22;1.98;;;12.30;99.90;;;;;;5039425;28;20021;-82
2022/10/08 07:54:23;;;;;;;3.30;2.42;;;12.40;99.90;;;;;;5040137;28;20056;-81
2022/10/08 07:56:49;;;;;;;4.25;2.10;;;12.50;99.90;;;;;;5046017;28;20451;-81
2022/10/08 07:59:14;;;;;;;4.82;1.80;;;12.70;99.90;;;;;;5040966;28;20059;-80
2022/10/08 08:01:41;;;;;;;3.33;2.05;;;12.80;99.90;;;;;;5043312;28;20033;-82
2022/10/08 08:04:09;;;;;;;8.48;2.13;;;12.90;99.90;;;;;;5042967;28;20052;-81
2022/10/08 08:06:48;;;;;;;6.10;1.83;;;12.90;99.90;;;;;;5030133;28;20035;-82
2022/10/08 08:09:14;;;;;;;5.90;1.88;;;13.10;99.90;;;;;;5045809;28;20056;-80
2022/10/08 08:11:40;;;;;;;2.90;1.67;;;13.20;99.90;;;;;;5049937;28;20685;-77
2022/10/08 08:14:06;;;;;;;5.55;2.35;;;13.30;99.90;;;;;;5038141;28;20029;-77
2022/10/08 08:16:31;;;;;;;2.42;1.80;;;13.40;99.90;;;;;;5046674;28;20104;-78
2022/10/08 08:18:59;;;;;;;2.92;1.63;;;13.50;99.90;;;;;;5048602;28;20021;-84
2022/10/08 08:21:30;;;;;;;2.08;1.38;;;13.60;99.90;;;;;;5045595;28;20387;-82
2022/10/08 08:23:57;;;;;;;9.15;1.90;;;13.60;99.90;;;;;;5049095;28;20079;-82
2022/10/08 08:26:34;;;;;;;5.78;1.67;;;13.70;99.90;;;;;;5049743;28;20036;-82
2022/10/08 08:29:14;;;;;;;6.45;1.73;;;13.80;99.90;;;;;;5043742;28;20051;-82
2022/10/08 08:31:45;;;;;;;5.00;1.95;;;13.90;99.90;;;;;;5045296;28;20043;-81
2022/10/08 08:34:14;;;;;;;9.25;1.42;;;13.90;99.90;;;;;;5047521;28;20036;-84
2022/10/08 08:36:42;;;;;;;4.57;1.60;;;14.00;99.90;;;;;;5039811;28;20064;-82
2022/10/08 08:39:14;;;;;;;5.22;1.65;;;14.10;99.90;;;;;;5040460;28;20030;-84
2022/10/08 08:41:52;;;;;;;3.17;1.88;;;14.20;99.90;;;;;;5032734;28;20037;-82
2022/10/08 08:44:31;;;;;;;3.03;1.80;;;14.30;99.90;;;;;;5039671;28;20130;-86
2022/10/08 08:47:26;;;;;;;8.55;2.03;;;14.20;99.90;;;;;;5036880;28;20203;-83
2022/10/08 08:50:14;;;;;;;5.95;1.90;;;14.10;99.90;;;;;;5038238;28;20035;-86
2022/10/08 08:52:43;;;;;;;2.75;1.50;;;14.20;99.90;;;;;;5032422;28;20044;-87
2022/10/08 08:55:18;;;;;;;9.02;1.90;;;14.50;99.90;;;;;;5036820;28;20072;-86
2022/10/08 08:57:53;;;;;;;4.97;1.55;;;14.70;99.90;;;;;;5039419;28;20036;-86
2022/10/08 09:00:26;;;;;;;4.38;2.10;;;14.90;99.90;;;;;;5038631;28;20064;-82
2022/10/08 09:03:02;;;;;;;6.60;2.00;;;15.10;99.90;;;;;;5035018;28;20043;-84
2022/10/08 09:05:31;;;;;;;9.18;2.22;;;15.50;99.90;;;;;;5038236;28;20263;-85
2022/10/08 09:08:18;;;;;;;4.40;2.67;;;15.70;99.90;;;;;;5039170;28;20060;-84
2022/10/08 09:10:53;;;;;;;4.75;2.17;;;15.80;99.90;;;;;;5037310;28;20033;-82
2022/10/08 09:13:36;;;;;;;9.88;2.72;;;16.00;99.90;;;;;;5037034;28;20025;-84
2022/10/08 09:16:05;;;;;;;8.70;2.65;;;15.60;99.90;;;;;;5022076;28;20045;-87
2022/10/08 09:18:31;;;;;;;5.88;2.28;;;15.70;99.90;;;;;;5036741;28;20527;-85
2022/10/08 09:20:57;;;;;;;8.63;3.15;;;15.80;99.90;;;;;;5037476;28;20025;-90
2022/10/08 09:23:24;;;;;;;6.07;2.35;;;15.70;99.90;;;;;;5040440;28;20020;-87
2022/10/08 09:26:02;;;;;;;4.28;2.00;;;15.50;99.90;;;;;;5038344;28;20028;-88
2022/10/08 09:28:40;;;;;;;11.38;2.47;;;15.60;99.90;;;;;;5041625;28;20044;-88
2022/10/08 09:31:16;;;;;;;8.25;2.70;;;15.60;99.90;;;;;;5035539;28;20064;-77
2022/10/08 09:33:42;;;;;;;8.77;2.58;;;15.70;99.90;;;;;;5043945;28;20115;-75
2022/10/08 09:36:08;;;;;;;3.25;2.17;;;15.50;99.90;;;;;;5042933;28;20024;-78
2022/10/08 09:38:36;;;;;;;7.05;2.83;;;15.50;99.90;;;;;;5041991;28;20467;-78
2022/10/08 09:41:17;;;;;;;4.53;2.17;;;15.80;99.90;;;;;;5043647;28;20090;-78
2022/10/08 09:43:44;;;;;;;;;;;15.90;99.90;;;;;;5045182;28;20033;-79
2022/10/08 09:46:31;;;;;;;6.05;1.88;;;15.70;99.90;;;;;;5045238;28;20302;-79
2022/10/08 09:49:26;;;;;;;6.20;2.40;;;15.50;99.90;;;;;;5040449;28;20063;-78
2022/10/08 09:51:52;;;;;;;5.22;2.97;;;15.40;99.90;;;;;;5044717;28;20099;-78
2022/10/08 09:54:24;;;;;;;7.65;2.20;;;15.40;99.90;;;;;;5043005;28;20120;-79
2022/10/08 09:56:52;;;;;;;5.57;2.10;;;15.60;99.90;;;;;;5048563;28;20021;-78
2022/10/08 09:59:20;;;;;;;5.90;2.10;;;15.60;99.90;;;;;;5030944;28;20144;-78
2022/10/08 10:01:46;;;;;;;4.68;2.33;;;15.50;99.90;;;;;;5033651;28;20033;-78
2022/10/08 10:04:36;;;;;;;4.75;2.15;;;15.60;99.90;;;;;;5029778;28;20029;-78
2022/10/08 10:07:03;;;;;;;3.05;2.03;;;16.00;99.90;;;;;;5022238;28;20084;-78
2022/10/08 10:09:50;;;;;;;4.45;2.35;;;16.10;99.90;;;;;;5037538;28;20020;-79
2022/10/08 10:12:25;;;;;;;4.18;2.22;;;16.20;99.90;;;;;;5046322;28;20075;-79
2022/10/08 10:14:56;;;;;;;6.70;2.25;;;16.20;99.90;;;;;;5048244;28;20060;-79
2022/10/08 10:17:52;;;;;;;2.87;2.00;;;16.50;99.90;;;;;;5049024;28;20036;-80
2022/10/08 10:20:22;;;;;;;6.82;2.60;;;16.30;99.90;;;;;;5048974;28;20260;-79
2022/10/08 10:23:12;;;;;;;5.60;2.30;;;15.90;99.90;;;;;;5046041;28;20037;-78
2022/10/08 10:25:45;;;;;;;3.22;2.10;;;15.80;99.90;;;;;;5043041;28;20048;-83
2022/10/08 10:28:17;;;;;;;7.38;2.20;;;15.70;99.90;;;;;;5044063;28;20106;-77
2022/10/08 10:30:58;;;;;;;6.80;2.70;;;15.90;99.90;;;;;;5035371;28;20049;-86
2022/10/08 10:33:27;;;;;;;3.90;1.50;;;15.60;99.90;;;;;;5038621;28;20072;-76
2022/10/08 10:35:58;;;;;;;3.83;2.15;;;15.50;99.90;;;;;;5036868;28;20097;-79
2022/10/08 10:38:29;;;;;;;4.10;2.00;;;15.50;99.90;;;;;;5040043;28;20119;-75
2022/10/08 10:41:26;;;;;;;7.53;2.45;;;15.80;99.90;;;;;;5044643;28;20024;-76
2022/10/08 10:44:03;;;;;;;6.38;2.92;;;15.90;99.90;;;;;;5042722;28;20025;-74
2022/10/08 10:46:43;;;;;;;4.75;2.40;;;15.90;99.90;;;;;;5041577;28;20025;-80
2022/10/08 10:49:30;;;;;;;4.82;2.20;;;15.60;99.90;;;;;;5035117;28;20059;-78
2022/10/08 10:52:22;;;;;;;4.65;2.22;;;15.50;99.90;;;;;;5040387;28;20036;-79
2022/10/08 10:55:06;;;;;;;5.55;2.05;;;15.20;99.90;;;;;;5039297;28;20028;-79
2022/10/08 10:58:03;;;;;;;3.88;2.13;;;15.10;99.90;;;;;;5040536;28;20391;-84
2022/10/08 11:00:45;;;;;;;6.43;2.10;;;15.10;99.90;;;;;;5037909;28;20087;-84
2022/10/08 11:03:32;;;;;;;2.85;1.85;;;14.90;99.90;;;;;;5035344;28;20458;-84
2022/10/08 11:06:32;;;;;;;6.70;2.20;;;14.80;99.90;;;;;;5038542;28;20021;-82
2022/10/08 11:09:16;;;;;;;4.25;2.00;;;14.70;99.90;;;;;;5038487;28;20025;-86
2022/10/08 11:11:47;;;;;;;11.48;2.47;;;14.80;99.90;;;;;;5042266;28;20025;-85
2022/10/08 11:14:33;;;;;;;8.45;2.30;;;15.00;99.90;;;;;;5039120;28;20024;-84
2022/10/08 11:17:28;;;;;;;5.78;2.15;;;15.00;99.90;;;;;;5039640;28;20045;-84
2022/10/08 11:20:08;;;;;;;9.40;2.72;;;15.30;99.90;;;;;;5039493;28;20106;-85
2022/10/08 11:23:03;;;;;;;8.40;2.20;;;15.50;99.90;;;;;;5038239;28;20040;-84
2022/10/08 11:25:56;;;;;;;3.92;1.90;;;15.50;99.90;;;;;;5015757;28;20052;-81
2022/10/08 11:28:45;;;;;;;13.32;2.63;;;15.40;99.90;;;;;;5043381;28;20025;-85
2022/10/08 11:31:25;;;;;;;6.57;2.08;;;15.40;99.90;;;;;;5030274;28;20128;-85
2022/10/08 11:33:54;;;;;;;2.78;1.88;;;15.40;99.90;;;;;;5043529;28;20088;-84
2022/10/08 11:36:33;;;;;;;4.40;1.60;;;15.30;99.90;;;;;;5033063;28;20207;-85
2022/10/08 11:39:19;;;;;;;5.78;1.88;;;15.30;99.90;;;;;;5043085;28;20067;-87
2022/10/08 11:42:12;;;;;;;3.45;1.50;;;15.60;99.90;;;;;;5030056;28;20423;-84
2022/10/08 11:44:37;;;;;;;3.53;1.70;;;15.60;99.90;;;;;;5038717;28;20057;-83
2022/10/08 11:47:40;;;;;;;6.25;2.22;;;15.30;99.90;;;;;;5043347;28;20064;-80
2022/10/08 11:50:26;;;;;;;2.92;1.85;;;15.40;99.90;;;;;;5042369;28;20029;-82
2022/10/08 11:52:55;;;;;;;4.03;2.22;;;15.50;99.90;;;;;;5046753;28;20742;-83
2022/10/08 11:55:34;;;;;;;3.70;1.80;;;15.50;99.90;;;;;;5045645;28;20070;-84
2022/10/08 11:58:05;;;;;;;5.18;2.35;;;15.60;99.90;;;;;;5047740;28;20018;-81
2022/10/08 12:00:44;;;;;;;4.47;2.00;;;15.50;99.90;;;;;;5040369;28;20075;-84
2022/10/08 12:03:30;;;;;;;3.33;2.35;;;15.60;99.90;;;;;;5033537;28;20036;-82
2022/10/08 12:06:17;;;;;;;3.40;2.00;;;15.70;99.90;;;;;;5037941;28;20560;-84
2022/10/08 12:08:59;;;;;;;5.53;1.83;;;15.70;99.90;;;;;;5033502;28;20037;-83
2022/10/08 12:11:30;;;;;;;4.35;1.90;;;16.20;99.90;;;;;;5040044;28;20090;-85
2022/10/08 12:14:11;;;;;;;4.32;1.30;;;16.90;99.90;;;;;;5047791;28;20040;-79
2022/10/08 12:16:55;;;;;;;2.20;1.50;;;17.80;96.50;;;;;;5046565;28;20037;-83
2022/10/08 12:19:39;;;;;;;5.47;1.67;;;17.90;95.40;;;;;;5033271;28;20411;-80
2022/10/08 12:22:13;;;;;;;2.28;1.52;;;17.70;95.40;;;;;;5037956;28;20036;-81
2022/10/08 12:24:39;;;;;;;2.63;1.20;;;17.10;97.00;;;;;;5041691;28;20059;-82
2022/10/08 12:27:16;;;;;;;2.53;1.27;;;17.80;95.40;;;;;;5041664;28;20480;-80
2022/10/08 12:30:16;;;;;;;3.28;1.40;;;17.30;94.90;;;;;;5036823;28;20036;-83
2022/10/08 12:32:41;;;;;;;6.72;1.58;;;17.20;94.60;;;;;;4998148;28;20098;-85
2022/10/08 12:35:21;;;;;;;2.90;1.55;;;16.90;95.70;;;;;;5040652;28;20078;-85
2022/10/08 12:38:12;;;;;;;2.97;1.30;;;16.90;96.00;;;;;;5044911;28;20113;-82
2022/10/08 12:40:44;;;;;;;1.38;1.23;;;16.80;95.90;;;;;;5044938;28;20647;-77
2022/10/08 12:43:24;;;;;;;4.22;1.30;;;16.50;97.30;;;;;;5041950;28;20021;-84
2022/10/08 12:46:16;;;;;;;2.85;2.05;;;17.00;96.10;;;;;;5046838;28;20025;-79
2022/10/08 12:48:45;;;;;;;;;;;17.30;95.10;;;;;;5040141;28;20511;-83
2022/10/08 12:51:40;;;;;;;2.08;1.30;;;17.30;94.20;;;;;;5043240;28;19995;-87
2022/10/08 12:54:17;;;;;;;5.05;1.90;;;16.80;94.40;;;;;;5047926;28;20029;-84
2022/10/08 12:56:42;;;;;;;1.10;0.85;;;18.10;93.20;;;;;;5050267;28;20055;-84
2022/10/08 12:59:10;;;;;;;1.42;1.00;;;24.20;71.10;;;;;;5048939;28;20033;-86
2022/10/08 13:01:36;;;;;;;2.88;1.40;;;26.50;58.10;;;;;;5048270;28;20033;-83
2022/10/08 13:04:17;;;;;;;4.25;1.70;;;27.70;53.00;;;;;;5045352;28;22212;-87
2022/10/08 13:06:43;;;;;;;5.93;1.23;;;28.90;51.70;;;;;;5045010;28;20032;-84
2022/10/08 13:09:29;;;;;;;1.80;1.10;;;30.10;47.90;;;;;;5038729;28;20033;-86
2022/10/08 13:11:56;;;;;;;2.80;1.23;;;29.20;46.90;;;;;;5047134;28;20032;-85
2022/10/08 13:14:24;;;;;;;2.00;1.20;;;29.30;45.20;;;;;;5048999;28;20484;-84
2022/10/08 13:16:50;;;;;;;1.85;1.00;;;29.30;45.80;;;;;;5049818;28;20756;-87
2022/10/08 13:19:17;;;;;;;1.83;0.80;;;30.50;43.80;;;;;;5049249;28;20083;-84
2022/10/08 13:21:59;;;;;;;1.92;1.20;;;30.50;44.00;;;;;;5050900;28;20040;-84
2022/10/08 13:24:24;;;;;;;4.38;1.02;;;30.30;42.10;;;;;;5049160;28;20430;-85